Time;durP1;ratioP1;P1;durP2;ratioP2;P2;SDS_P1;SDS_P2;PMS_P1;PMS_P2;Temp;Humidity;BMP_temperature;BMP_pressure;BME280_temperature;BME280_humidity;BME280_pressure;Samples;Min_cycle;Max_cycle;Signal;HPM_P1;HPM_P2
2021/06/28 00:02:05;;;;;;;2.50;1.88;;;;;;;17.89;69.82;95579.84;4973795;28;20652;-75
2021/06/28 00:04:31;;;;;;;3.50;2.20;;;;;;;17.85;69.98;95578.59;4956636;28;20200;-75
2021/06/28 00:06:56;;;;;;;3.25;2.20;;;;;;;17.89;69.98;95579.84;4966013;28;20219;-76
2021/06/28 00:09:21;;;;;;;2.55;2.20;;;;;;;17.92;70.15;95581.25;4956070;28;20247;-76
2021/06/28 00:11:46;;;;;;;1.83;1.73;;;;;;;17.87;70.24;95573.16;4956278;28;20172;-76
2021/06/28 00:14:12;;;;;;;2.42;1.80;;;;;;;17.83;70.95;95573.53;4960004;28;20266;-76
2021/06/28 00:16:37;;;;;;;2.13;1.80;;;;;;;17.85;70.62;95573.34;4984424;28;20318;-75
2021/06/28 00:19:03;;;;;;;1.95;1.75;;;;;;;17.78;70.25;95581.19;4992681;28;20180;-76
2021/06/28 00:21:29;;;;;;;1.85;1.75;;;;;;;17.74;71.28;95571.22;4975412;28;20644;-76
2021/06/28 00:23:54;;;;;;;1.83;1.73;;;;;;;17.72;70.93;95558.28;4974771;28;20199;-75
2021/06/28 00:26:20;;;;;;;2.55;1.67;;;;;;;17.70;70.18;95565.56;4968709;28;20218;-76
2021/06/28 00:28:45;;;;;;;1.70;1.60;;;;;;;17.66;70.19;95563.47;4979663;28;20234;-76
2021/06/28 00:31:10;;;;;;;1.65;1.50;;;;;;;17.71;70.68;95561.13;4974911;28;20280;-76
2021/06/28 00:33:36;;;;;;;1.73;1.63;;;;;;;17.64;69.59;95557.59;4974961;28;20176;-76
2021/06/28 00:36:01;;;;;;;1.58;1.48;;;;;;;17.66;69.20;95558.22;4971798;28;20354;-75
2021/06/28 00:38:26;;;;;;;2.75;1.80;;;;;;;17.67;68.82;95560.66;4963634;28;20293;-76
2021/06/28 00:40:52;;;;;;;1.50;1.40;;;;;;;17.73;68.63;95556.47;4955803;28;20177;-76
2021/06/28 00:43:17;;;;;;;1.52;1.42;;;;;;;17.65;69.13;95552.16;4955365;28;20624;-75
2021/06/28 00:45:43;;;;;;;1.80;1.65;;;;;;;17.64;69.15;95547.91;4972845;28;20211;-76
2021/06/28 00:48:17;;;;;;;1.67;1.52;;;;;;;17.64;67.89;95553.16;4988782;28;20192;-75
2021/06/28 00:50:52;;;;;;;1.30;1.20;;;;;;;17.75;67.33;95552.66;4955715;28;20551;-76
2021/06/28 00:53:19;;;;;;;2.28;1.58;;;;;;;17.83;67.16;95546.44;4955436;28;20176;-75
2021/06/28 00:55:45;;;;;;;1.67;1.58;;;;;;;17.86;66.59;95547.91;4972951;28;20223;-75
2021/06/28 00:58:11;;;;;;;1.27;1.17;;;;;;;17.82;66.62;95550.88;4961999;28;20225;-76
2021/06/28 01:00:37;;;;;;;2.05;1.25;;;;;;;17.87;66.73;95544.25;4947250;28;20208;-75
2021/06/28 01:03:04;;;;;;;1.63;1.40;;;;;;;17.95;66.42;95544.91;4955737;28;20183;-76
2021/06/28 01:05:32;;;;;;;1.83;1.63;;;;;;;17.90;66.39;95541.25;4971692;28;20839;-76
2021/06/28 01:07:59;;;;;;;1.60;1.50;;;;;;;17.96;65.97;95536.03;4961839;28;20615;-75
2021/06/28 01:10:24;;;;;;;1.80;1.70;;;;;;;17.95;65.89;95531.78;4963429;28;20223;-76
2021/06/28 01:12:50;;;;;;;1.60;1.50;;;;;;;18.02;65.50;95537.06;4972719;28;20189;-76
2021/06/28 01:15:16;;;;;;;1.88;1.50;;;;;;;18.03;65.80;95533.44;4955466;28;20231;-75
2021/06/28 01:17:43;;;;;;;1.52;1.42;;;;;;;18.10;65.05;95524.56;4955527;28;20247;-75
2021/06/28 01:20:12;;;;;;;1.70;1.60;;;;;;;18.10;65.53;95529.81;4990175;28;20199;-76
2021/06/28 01:22:41;;;;;;;2.47;1.60;;;;;;;18.07;65.55;95534.66;4976019;28;20176;-76
2021/06/28 01:25:09;;;;;;;1.73;1.60;;;;;;;18.07;65.58;95524.97;4942999;28;20203;-76
2021/06/28 01:27:34;;;;;;;2.47;1.48;;;;;;;18.11;65.37;95525.41;4976491;28;20754;-76
2021/06/28 01:30:00;;;;;;;1.88;1.50;;;;;;;17.98;66.13;95527.94;4964550;28;20220;-76
2021/06/28 01:32:26;;;;;;;2.15;1.55;;;;;;;18.02;65.89;95537.06;4965305;28;20181;-76
2021/06/28 01:34:52;;;;;;;1.73;1.60;;;;;;;17.98;66.64;95528.75;4958832;28;20188;-76
2021/06/28 01:37:21;;;;;;;1.67;1.52;;;;;;;17.93;67.06;95525.88;4942868;28;20215;-76
2021/06/28 01:39:48;;;;;;;1.67;1.58;;;;;;;17.89;67.27;95521.22;4965175;28;20192;-75
2021/06/28 01:42:14;;;;;;;1.70;1.60;;;;;;;17.86;67.79;95527.69;4954179;28;20519;-76
2021/06/28 01:44:39;;;;;;;1.52;1.42;;;;;;;17.86;68.21;95522.44;4978047;28;20222;-76
2021/06/28 01:47:04;;;;;;;1.88;1.77;;;;;;;17.79;68.35;95522.38;4978220;28;20246;-75
2021/06/28 01:49:30;;;;;;;1.58;1.48;;;;;;;17.85;68.09;95515.56;4978173;28;20180;-76
2021/06/28 01:51:55;;;;;;;1.88;1.67;;;;;;;17.78;68.48;95512.88;4986424;28;20246;-76
2021/06/28 01:54:21;;;;;;;2.05;1.48;;;;;;;17.74;68.52;95516.88;4958534;28;20181;-74
2021/06/28 01:56:46;;;;;;;3.33;1.83;;;;;;;17.73;68.15;95517.09;4958739;28;20208;-76
2021/06/28 01:59:11;;;;;;;3.00;1.75;;;;;;;17.67;68.88;95508.16;4958789;28;20228;-76
2021/06/28 02:01:38;;;;;;;2.22;1.55;;;;;;;17.64;68.95;95508.50;4979548;28;20556;-75
2021/06/28 02:04:03;;;;;;;2.08;1.88;;;;;;;17.69;68.71;95508.75;4966274;28;20272;-76
2021/06/28 02:06:29;;;;;;;2.95;1.63;;;;;;;17.67;68.48;95505.53;4975782;28;20295;-76
2021/06/28 02:08:54;;;;;;;2.25;1.85;;;;;;;17.69;68.95;95506.13;4958602;28;20247;-76
2021/06/28 02:11:19;;;;;;;2.38;1.77;;;;;;;17.68;68.60;95516.84;4978776;28;20184;-75
2021/06/28 02:13:44;;;;;;;2.92;1.80;;;;;;;17.68;68.94;95520.28;4986924;28;20183;-76
2021/06/28 02:16:10;;;;;;;2.22;1.60;;;;;;;17.62;69.25;95526.28;4958407;28;20719;-76
2021/06/28 02:18:35;;;;;;;2.67;1.90;;;;;;;17.64;69.10;95534.78;4958510;28;20192;-76
2021/06/28 02:21:02;;;;;;;1.83;1.73;;;;;;;17.60;69.40;95538.00;4975477;28;20235;-76
2021/06/28 02:23:33;;;;;;;1.83;1.73;;;;;;;17.61;68.85;95544.84;4953177;28;20279;-76
2021/06/28 02:26:04;;;;;;;1.75;1.65;;;;;;;17.62;68.47;95544.66;4975815;28;20724;-76
2021/06/28 02:28:35;;;;;;;1.50;1.40;;;;;;;17.67;68.86;95538.81;4961304;28;20184;-76
2021/06/28 02:31:02;;;;;;;2.55;1.60;;;;;;;17.65;69.16;95538.22;4977305;28;20204;-76
2021/06/28 02:33:27;;;;;;;1.90;1.70;;;;;;;17.64;69.05;95533.97;4971933;28;20211;-76
2021/06/28 02:35:53;;;;;;;3.90;1.67;;;;;;;17.64;69.21;95533.97;4965672;28;20699;-76
2021/06/28 02:38:19;;;;;;;2.28;1.80;;;;;;;17.63;69.01;95527.91;4942033;28;20181;-76
2021/06/28 02:40:44;;;;;;;1.98;1.60;;;;;;;17.64;68.94;95526.09;4958036;28;20644;-76
2021/06/28 02:43:10;;;;;;;3.13;1.75;;;;;;;17.62;69.19;95515.78;4959998;28;20188;-76
2021/06/28 02:45:35;;;;;;;1.77;1.67;;;;;;;17.61;69.50;95518.59;4960795;28;20718;-76
2021/06/28 02:48:01;;;;;;;2.58;2.20;;;;;;;17.58;70.24;95524.22;4977495;28;20541;-76
2021/06/28 02:50:26;;;;;;;2.00;1.90;;;;;;;17.59;69.89;95523.25;4977189;28;20188;-75
2021/06/28 02:52:51;;;;;;;2.47;2.28;;;;;;;17.58;70.01;95526.84;4994511;28;20699;-76
2021/06/28 02:55:17;;;;;;;2.30;2.10;;;;;;;17.58;70.32;95526.84;4956243;28;20189;-76
2021/06/28 02:57:42;;;;;;;2.00;1.90;;;;;;;17.56;69.42;95522.59;4956792;28;20580;-76
2021/06/28 03:00:11;;;;;;;2.78;2.17;;;;;;;17.56;69.38;95517.34;4976987;28;20183;-75
2021/06/28 03:02:37;;;;;;;2.65;1.83;;;;;;;17.64;68.60;95521.66;4994698;28;20698;-75
2021/06/28 03:05:04;;;;;;;2.40;1.70;;;;;;;17.61;67.58;95515.97;4974414;28;20179;-76
2021/06/28 03:07:29;;;;;;;1.70;1.60;;;;;;;17.58;67.53;95517.19;4965314;28;20193;-77
2021/06/28 03:09:55;;;;;;;1.95;1.70;;;;;;;17.58;67.35;95517.19;4957520;28;20235;-76
2021/06/28 03:12:20;;;;;;;2.58;2.00;;;;;;;17.60;67.54;95517.78;4957589;28;20180;-76
2021/06/28 03:14:45;;;;;;;3.08;1.90;;;;;;;17.75;67.24;95497.50;4974020;28;20624;-75
2021/06/28 03:17:11;;;;;;;1.90;1.80;;;;;;;17.67;67.33;95494.19;4983981;28;20222;-75
2021/06/28 03:19:36;;;;;;;1.95;1.77;;;;;;;17.61;67.18;95474.78;4962022;28;20235;-76
2021/06/28 03:22:01;;;;;;;1.75;1.65;;;;;;;17.58;67.30;95472.53;4941177;28;20184;-75
2021/06/28 03:24:27;;;;;;;1.75;1.65;;;;;;;17.56;67.71;95459.56;4974162;28;20193;-75
2021/06/28 03:26:53;;;;;;;1.95;1.80;;;;;;;17.54;67.63;95455.53;4977233;28;20634;-76
2021/06/28 03:29:18;;;;;;;1.70;1.60;;;;;;;17.58;67.35;95459.41;4981713;28;20192;-76
2021/06/28 03:31:43;;;;;;;1.85;1.75;;;;;;;17.56;67.61;95453.53;4957101;28;20185;-76
2021/06/28 03:34:09;;;;;;;1.90;1.70;;;;;;;17.55;67.70;95451.91;4974023;28;20172;-76
2021/06/28 03:36:34;;;;;;;2.00;1.90;;;;;;;17.56;69.12;95458.78;4959605;28;20212;-76
2021/06/28 03:38:59;;;;;;;2.13;1.83;;;;;;;17.54;69.85;95466.84;4983684;28;20207;-75
2021/06/28 03:41:24;;;;;;;2.45;2.05;;;;;;;17.58;69.99;95477.78;4956762;28;20181;-76
2021/06/28 03:43:50;;;;;;;2.83;1.95;;;;;;;17.54;69.52;95476.53;4940092;28;20235;-76
2021/06/28 03:46:16;;;;;;;2.55;2.35;;;;;;;17.54;70.67;95479.97;4957007;28;20196;-76
2021/06/28 03:48:41;;;;;;;2.08;1.90;;;;;;;17.52;70.14;95479.38;4963780;28;20184;-76
2021/06/28 03:51:06;;;;;;;2.47;1.52;;;;;;;17.49;69.87;95479.75;4955909;28;20184;-76
2021/06/28 03:53:32;;;;;;;1.85;1.75;;;;;;;17.55;68.95;95480.78;4972745;28;20667;-75
2021/06/28 03:55:57;;;;;;;2.10;1.85;;;;;;;17.49;68.91;95479.75;4972583;28;20201;-77
2021/06/28 03:58:22;;;;;;;1.98;1.88;;;;;;;17.49;68.71;95471.03;4970642;28;20295;-76
2021/06/28 04:00:48;;;;;;;2.13;1.65;;;;;;;17.47;69.15;95473.06;4964497;28;20180;-76
2021/06/28 04:03:14;;;;;;;1.88;1.77;;;;;;;17.58;69.34;95469.06;4956040;28;20212;-75
2021/06/28 04:05:41;;;;;;;2.25;2.05;;;;;;;17.54;70.24;95469.47;4975766;28;20200;-76
2021/06/28 04:08:06;;;;;;;2.05;1.80;;;;;;;17.49;70.83;95476.28;4974486;28;20180;-76
2021/06/28 04:10:31;;;;;;;2.25;2.00;;;;;;;17.38;71.63;95474.19;4968484;28;20248;-76
2021/06/28 04:12:57;;;;;;;2.50;2.30;;;;;;;17.35;72.09;95474.59;4990939;28;20605;-76
2021/06/28 04:15:23;;;;;;;2.38;2.20;;;;;;;17.45;71.65;95464.56;4959081;28;20733;-76
2021/06/28 04:17:53;;;;;;;2.95;2.05;;;;;;;17.51;70.96;95456.75;4975507;28;20737;-76
2021/06/28 04:20:21;;;;;;;2.67;1.90;;;;;;;17.42;70.93;95454.47;4970207;28;20656;-76
2021/06/28 04:22:46;;;;;;;1.98;1.88;;;;;;;17.43;71.31;95475.25;4963709;28;20180;-76
2021/06/28 04:25:18;;;;;;;3.38;2.03;;;;;;;17.43;72.47;95488.38;4955947;28;20699;-76
2021/06/28 04:27:44;;;;;;;3.13;1.98;;;;;;;17.48;72.55;95487.78;4973546;28;20645;-75
2021/06/28 04:30:10;;;;;;;2.25;2.05;;;;;;;17.41;72.56;95498.28;4958468;28;20241;-77
2021/06/28 04:32:36;;;;;;;2.80;1.90;;;;;;;17.40;72.83;95498.44;4963921;28;20548;-75
2021/06/28 04:35:06;;;;;;;2.05;1.90;;;;;;;17.56;72.05;95495.53;4955481;28;20185;-77
2021/06/28 04:37:32;;;;;;;2.30;2.10;;;;;;;17.64;71.45;95503.25;4955925;28;20218;-76
2021/06/28 04:39:57;;;;;;;2.35;2.15;;;;;;;17.74;71.25;95500.31;4943031;28;20180;-75
2021/06/28 04:42:22;;;;;;;3.70;2.20;;;;;;;17.78;71.31;95494.50;4966281;28;20188;-77
2021/06/28 04:44:48;;;;;;;3.35;2.00;;;;;;;17.88;70.89;95490.72;4958804;28;20196;-75
2021/06/28 04:47:13;;;;;;;1.80;1.70;;;;;;;17.96;70.10;95498.44;4938415;28;20755;-75
2021/06/28 04:49:39;;;;;;;2.20;2.00;;;;;;;18.23;68.92;95496.75;4955049;28;20184;-76
2021/06/28 04:52:04;;;;;;;2.30;2.10;;;;;;;18.69;67.78;95494.28;4961456;28;20250;-76
2021/06/28 04:54:29;;;;;;;2.30;2.10;;;;;;;19.18;65.52;95506.31;4959871;28;20248;-75
2021/06/28 04:56:55;;;;;;;1.75;1.63;;;;;;;21.27;58.73;95506.06;4965711;28;20696;-77
2021/06/28 04:59:20;;;;;;;3.08;1.65;;;;;;;22.39;55.70;95501.53;4949484;28;20845;-75
2021/06/28 05:01:45;;;;;;;1.98;1.88;;;;;;;23.76;50.16;95497.09;4933481;28;20380;-75
2021/06/28 05:04:11;;;;;;;1.88;1.40;;;;;;;24.37;47.99;95493.13;4966899;28;20665;-75
2021/06/28 05:06:36;;;;;;;4.30;1.88;;;;;;;26.00;45.06;95511.91;4955017;28;20224;-76
2021/06/28 05:09:02;;;;;;;1.70;1.50;;;;;;;27.49;41.92;95515.22;4952313;28;20192;-74
2021/06/28 05:11:27;;;;;;;1.23;1.13;;;;;;;28.31;39.33;95516.59;4965659;28;20188;-74
2021/06/28 05:13:52;;;;;;;2.13;1.50;;;;;;;27.50;40.21;95522.94;4956667;28;20188;-75
2021/06/28 05:16:17;;;;;;;1.50;1.30;;;;;;;28.91;37.23;95515.25;4961157;28;20215;-75
2021/06/28 05:18:43;;;;;;;1.33;1.23;;;;;;;30.01;35.18;95526.28;4973276;28;20199;-75
2021/06/28 05:21:08;;;;;;;2.53;1.55;;;;;;;28.84;36.58;95514.66;4973358;28;20176;-75
2021/06/28 05:23:33;;;;;;;2.55;1.40;;;;;;;27.86;39.82;95521.38;4944405;28;20190;-75
2021/06/28 05:25:59;;;;;;;2.13;1.52;;;;;;;28.34;37.92;95510.72;4966042;28;20757;-77
2021/06/28 05:28:24;;;;;;;1.60;1.50;;;;;;;26.25;42.50;95520.22;4975139;28;20221;-76
2021/06/28 05:30:50;;;;;;;1.65;1.50;;;;;;;26.87;41.31;95516.47;4987458;28;20659;-76
2021/06/28 05:33:15;;;;;;;2.42;1.60;;;;;;;26.90;41.15;95515.94;4939422;28;20180;-76
2021/06/28 05:35:41;;;;;;;2.30;1.40;;;;;;;26.93;40.89;95518.09;4964818;28;20277;-76
2021/06/28 05:38:06;;;;;;;2.20;1.40;;;;;;;27.59;39.99;95516.09;4958533;28;20191;-75
2021/06/28 05:40:31;;;;;;;1.67;1.50;;;;;;;28.48;37.75;95525.22;4975123;28;20575;-76
2021/06/28 05:42:57;;;;;;;2.75;1.58;;;;;;;26.99;41.36;95516.31;4974387;28;20176;-75
2021/06/28 05:45:22;;;;;;;2.38;1.30;;;;;;;27.22;40.97;95515.25;4981012;28;20707;-75
2021/06/28 05:47:47;;;;;;;1.60;1.38;;;;;;;27.15;40.56;95512.78;4940298;28;20192;-76
2021/06/28 05:50:17;;;;;;;1.45;1.35;;;;;;;26.75;41.88;95516.59;4966450;28;20177;-74
2021/06/28 05:52:42;;;;;;;1.60;1.50;;;;;;;26.48;42.07;95515.75;4953396;28;20238;-75
2021/06/28 05:55:08;;;;;;;1.83;1.50;;;;;;;26.24;43.41;95517.81;4956494;28;20653;-77
2021/06/28 05:57:34;;;;;;;1.75;1.50;;;;;;;26.44;43.16;95514.63;4982370;28;20263;-75
2021/06/28 05:59:59;;;;;;;2.38;1.50;;;;;;;26.89;41.35;95511.69;4949216;28;20183;-74
2021/06/28 06:02:24;;;;;;;2.55;1.90;;;;;;;26.44;42.81;95502.13;4977123;28;20179;-75
2021/06/28 06:04:50;;;;;;;1.80;1.45;;;;;;;27.78;39.54;95503.19;4986390;28;20183;-76
2021/06/28 06:07:15;;;;;;;2.40;1.40;;;;;;;28.96;37.10;95505.34;4968685;28;20196;-75
2021/06/28 06:09:40;;;;;;;1.27;1.17;;;;;;;31.02;34.47;95516.34;4975747;28;20683;-76
2021/06/28 06:12:06;;;;;;;1.50;1.40;;;;;;;31.14;33.59;95515.97;4970816;28;20168;-73
2021/06/28 06:14:32;;;;;;;1.50;1.25;;;;;;;31.55;32.84;95505.81;4990093;28;20189;-75
2021/06/28 06:16:58;;;;;;;1.42;1.33;;;;;;;31.68;31.60;95507.03;4968869;28;20211;-74
2021/06/28 06:19:23;;;;;;;1.48;1.38;;;;;;;32.13;30.28;95514.66;4982538;28;20182;-74
2021/06/28 06:21:49;;;;;;;1.95;1.38;;;;;;;31.67;30.13;95513.47;4958579;28;20545;-75
2021/06/28 06:24:14;;;;;;;2.05;1.23;;;;;;;31.09;31.45;95507.97;4975324;28;20184;-75
2021/06/28 06:26:40;;;;;;;1.50;1.40;;;;;;;31.35;30.97;95519.34;4975250;28;20205;-75
2021/06/28 06:29:05;;;;;;;1.63;1.52;;;;;;;31.28;31.25;95519.69;4986957;28;20199;-75
2021/06/28 06:31:30;;;;;;;1.30;1.20;;;;;;;31.02;30.46;95521.69;4970853;28;20176;-75
2021/06/28 06:33:56;;;;;;;1.00;1.00;;;;;;;31.42;30.44;95522.53;4971539;28;20179;-76
2021/06/28 06:36:21;;;;;;;1.50;1.40;;;;;;;32.24;29.74;95528.00;4966396;28;20243;-76
2021/06/28 06:38:47;;;;;;;1.80;1.42;;;;;;;32.20;30.43;95529.66;4965097;28;20708;-76
2021/06/28 06:41:12;;;;;;;2.35;1.40;;;;;;;30.06;33.57;95536.19;4937197;28;20188;-75
2021/06/28 06:43:37;;;;;;;1.85;1.38;;;;;;;30.81;31.86;95525.56;4951218;28;20515;-76
2021/06/28 06:46:03;;;;;;;2.60;1.23;;;;;;;29.70;34.46;95524.72;4940852;28;20196;-75
2021/06/28 06:48:28;;;;;;;1.70;1.42;;;;;;;27.86;37.42;95521.38;4980477;28;20196;-77
2021/06/28 06:50:54;;;;;;;1.85;1.40;;;;;;;28.41;36.25;95521.97;4969970;28;20415;-76
2021/06/28 06:53:19;;;;;;;1.40;1.30;;;;;;;30.12;34.34;95530.56;4975862;28;20174;-76
2021/06/28 06:55:45;;;;;;;1.80;1.23;;;;;;;29.92;32.78;95535.94;4977443;28;20200;-76
2021/06/28 06:58:11;;;;;;;1.38;1.17;;;;;;;29.90;34.04;95532.72;4972703;28;20243;-77
2021/06/28 07:00:39;;;;;;;1.48;1.38;;;;;;;29.63;35.17;95534.91;4965880;28;20267;-76
2021/06/28 07:03:04;;;;;;;2.95;1.40;;;;;;;29.14;36.39;95538.00;4957287;28;20191;-76
2021/06/28 07:05:30;;;;;;;2.55;1.80;;;;;;;29.42;36.11;95537.53;4957350;28;20224;-77
2021/06/28 07:07:55;;;;;;;2.85;1.30;;;;;;;29.56;33.79;95543.19;4977261;28;20605;-76
2021/06/28 07:10:20;;;;;;;1.38;1.27;;;;;;;30.45;31.70;95539.06;4965316;28;20633;-76
2021/06/28 07:12:46;;;;;;;1.60;1.50;;;;;;;30.56;31.11;95547.84;4963578;28;20219;-76
2021/06/28 07:15:13;;;;;;;2.33;1.35;;;;;;;30.17;32.77;95538.59;4965082;28;20184;-76
2021/06/28 07:17:41;;;;;;;1.60;1.50;;;;;;;31.06;31.82;95538.03;4972081;28;20204;-76
2021/06/28 07:20:09;;;;;;;1.60;1.30;;;;;;;31.54;32.06;95544.44;4981521;28;20607;-75
2021/06/28 07:22:34;;;;;;;1.60;1.50;;;;;;;30.60;32.31;95555.09;4979301;28;20191;-75
2021/06/28 07:25:00;;;;;;;1.70;1.60;;;;;;;29.18;35.19;95555.16;4993736;28;20184;-77
2021/06/28 07:27:25;;;;;;;1.40;1.30;;;;;;;29.60;33.13;95561.13;4976391;28;20193;-76
2021/06/28 07:29:51;;;;;;;1.58;1.48;;;;;;;30.15;33.11;95564.84;4992266;28;20627;-75
2021/06/28 07:32:16;;;;;;;1.58;1.48;;;;;;;29.09;32.06;95562.88;4948697;28;20172;-76
2021/06/28 07:34:41;;;;;;;1.40;1.30;;;;;;;29.87;31.14;95568.88;4956587;28;20571;-76
2021/06/28 07:37:07;;;;;;;1.50;1.40;;;;;;;29.45;32.11;95571.78;4974090;28;20208;-75
2021/06/28 07:39:32;;;;;;;1.88;1.60;;;;;;;27.92;36.75;95571.06;4956866;28;20229;-76
2021/06/28 07:41:57;;;;;;;1.98;1.40;;;;;;;28.53;36.45;95567.97;4966562;28;20254;-76
2021/06/28 07:44:25;;;;;;;2.30;1.67;;;;;;;28.06;35.34;95560.75;4981057;28;20304;-77
2021/06/28 07:46:50;;;;;;;1.48;1.38;;;;;;;27.14;38.18;95567.16;4956491;28;20201;-76
2021/06/28 07:49:15;;;;;;;1.95;1.60;;;;;;;26.25;38.05;95578.78;4940496;28;20187;-76
2021/06/28 07:51:41;;;;;;;2.17;1.55;;;;;;;26.90;37.94;95565.78;4978872;28;20268;-74
2021/06/28 07:54:08;;;;;;;3.40;1.80;;;;;;;26.59;39.01;95570.72;4955460;28;20187;-77
2021/06/28 07:56:33;;;;;;;2.45;1.90;;;;;;;26.72;39.65;95567.69;4956464;28;20677;-75
2021/06/28 07:58:59;;;;;;;5.47;1.90;;;;;;;26.46;39.93;95577.22;4956459;28;20185;-76
2021/06/28 08:01:24;;;;;;;4.18;1.92;;;;;;;27.09;39.17;95565.22;4974367;28;20272;-76
2021/06/28 08:03:50;;;;;;;2.13;1.73;;;;;;;27.74;37.86;95565.28;4951633;28;20180;-75
2021/06/28 08:06:16;;;;;;;2.33;1.95;;;;;;;26.52;41.75;95573.59;4959308;28;20578;-74
2021/06/28 08:08:43;;;;;;;2.08;1.88;;;;;;;27.18;41.47;95570.09;4975927;28;20180;-76
2021/06/28 08:11:09;;;;;;;2.60;1.70;;;;;;;26.66;39.29;95574.00;4959509;28;20267;-75
2021/06/28 08:13:36;;;;;;;2.35;1.88;;;;;;;26.74;40.12;95568.25;4966923;28;20183;-76
2021/06/28 08:16:02;;;;;;;2.92;1.98;;;;;;;25.25;43.52;95576.88;4974348;28;20192;-75
2021/06/28 08:18:28;;;;;;;2.80;1.92;;;;;;;25.97;42.46;95576.22;4973359;28;20592;-76
2021/06/28 08:20:53;;;;;;;2.63;2.05;;;;;;;26.27;40.43;95571.38;4972186;28;20191;-76
2021/06/28 08:23:18;;;;;;;4.25;1.90;;;;;;;26.20;41.19;95575.25;4980892;28;20222;-76
2021/06/28 08:25:44;;;;;;;2.40;2.03;;;;;;;25.73;41.19;95577.47;4967236;28;20202;-76
2021/06/28 08:28:10;;;;;;;3.35;1.98;;;;;;;25.93;41.62;95572.44;4992669;28;20168;-76
2021/06/28 08:30:36;;;;;;;2.05;1.85;;;;;;;26.36;41.16;95581.59;4975024;28;20668;-76
2021/06/28 08:33:01;;;;;;;4.05;1.83;;;;;;;25.96;42.80;95586.06;4991606;28;20198;-76
2021/06/28 08:35:26;;;;;;;2.08;1.85;;;;;;;26.34;42.88;95597.00;4984066;28;20558;-76
2021/06/28 08:37:52;;;;;;;4.82;2.17;;;;;;;26.75;42.49;95601.03;4958496;28;20676;-76
2021/06/28 08:40:17;;;;;;;2.13;1.92;;;;;;;26.94;42.70;95609.50;4955762;28;20196;-76
2021/06/28 08:42:44;;;;;;;2.47;2.03;;;;;;;26.99;42.53;95613.06;4955923;28;20177;-76
2021/06/28 08:45:09;;;;;;;2.20;2.03;;;;;;;26.74;42.22;95605.53;4960896;28;20279;-76
2021/06/28 08:47:35;;;;;;;3.22;1.90;;;;;;;26.74;40.28;95596.75;4960506;28;20259;-76
2021/06/28 08:50:01;;;;;;;2.50;2.03;;;;;;;27.06;40.93;95587.06;4972910;28;20227;-75
2021/06/28 08:52:26;;;;;;;2.13;1.90;;;;;;;27.30;39.37;95597.44;4955667;28;20187;-76
2021/06/28 08:54:52;;;;;;;3.15;2.20;;;;;;;27.29;40.23;95607.25;4959907;28;20183;-76
2021/06/28 08:57:18;;;;;;;2.70;1.90;;;;;;;27.10;40.53;95604.13;4947929;28;20204;-76
2021/06/28 08:59:43;;;;;;;2.00;1.83;;;;;;;27.11;41.30;95615.59;4939460;28;20180;-76
2021/06/28 09:02:09;;;;;;;2.08;1.95;;;;;;;26.21;44.33;95603.47;4974769;28;20542;-75
2021/06/28 09:04:34;;;;;;;2.95;2.20;;;;;;;26.07;43.71;95602.22;4957452;28;20262;-76
2021/06/28 09:07:21;;;;;;;2.95;2.30;;;;;;;26.26;42.22;95607.03;4982834;28;20745;-76
2021/06/28 09:09:47;;;;;;;2.63;1.95;;;;;;;26.52;42.01;95604.75;4959160;28;20541;-75
2021/06/28 09:12:16;;;;;;;2.55;2.28;;;;;;;26.02;42.96;95599.47;4955508;28;20264;-75
2021/06/28 09:14:55;;;;;;;2.42;2.17;;;;;;;26.66;43.05;95608.63;4955290;28;20176;-75
2021/06/28 09:17:25;;;;;;;3.03;2.25;;;;;;;26.29;43.59;95600.38;4962365;28;20221;-76
2021/06/28 09:20:16;;;;;;;2.03;1.90;;;;;;;26.52;43.59;95602.88;4957302;28;20247;-75
2021/06/28 09:22:43;;;;;;;2.40;2.20;;;;;;;26.70;43.68;95604.44;4972618;28;20591;-76
2021/06/28 09:25:09;;;;;;;2.15;1.95;;;;;;;25.38;46.29;95603.19;4971268;28;20176;-77
2021/06/28 09:27:42;;;;;;;2.67;2.47;;;;;;;26.27;44.24;95597.97;4960130;28;20228;-77
2021/06/28 09:30:20;;;;;;;3.83;1.90;;;;;;;26.46;44.41;95592.41;4963453;28;20180;-75
2021/06/28 09:33:02;;;;;;;2.22;2.03;;;;;;;27.02;43.11;95590.41;4973106;28;20182;-76
2021/06/28 09:35:38;;;;;;;3.03;2.10;;;;;;;26.94;43.19;95594.31;4954714;28;20184;-76
2021/06/28 09:38:09;;;;;;;3.63;2.30;;;;;;;26.99;42.72;95581.06;4979605;28;20207;-76
2021/06/28 09:40:36;;;;;;;2.30;2.10;;;;;;;26.98;43.16;95584.00;4963040;28;20172;-75
2021/06/28 09:43:26;;;;;;;2.42;2.22;;;;;;;26.45;42.57;95593.47;4959635;28;20589;-76
2021/06/28 09:45:55;;;;;;;2.90;2.28;;;;;;;26.66;42.71;95589.19;4959309;28;20796;-75
2021/06/28 09:48:29;;;;;;;2.42;2.20;;;;;;;27.06;42.97;95588.91;4961840;28;20184;-76
2021/06/28 09:51:21;;;;;;;2.13;2.00;;;;;;;26.88;42.13;95584.69;4967166;28;20183;-76
2021/06/28 09:53:48;;;;;;;2.50;2.30;;;;;;;26.36;44.29;95581.59;4943150;28;20180;-75
2021/06/28 09:56:29;;;;;;;2.38;2.20;;;;;;;25.76;45.01;95583.09;4958953;28;20271;-76
2021/06/28 09:58:55;;;;;;;3.38;1.90;;;;;;;26.32;43.61;95575.13;4981154;28;20237;-77
2021/06/28 10:01:24;;;;;;;2.60;2.40;;;;;;;26.16;42.80;95577.59;4967045;28;20177;-75
2021/06/28 10:03:53;;;;;;;2.47;2.28;;;;;;;25.94;46.02;95574.88;4985345;28;20183;-76
2021/06/28 10:08:51;;;;;;;2.00;1.90;;;;;;;25.10;45.73;95566.81;4996047;28;20266;-76
2021/06/28 10:11:24;;;;;;;2.65;2.10;;;;;;;25.56;44.78;95572.91;4990433;28;20176;-77
2021/06/28 10:13:55;;;;;;;2.10;1.90;;;;;;;25.36;45.10;95568.06;4975422;28;20199;-77
2021/06/28 10:16:23;;;;;;;3.85;2.40;;;;;;;25.24;46.75;95575.28;4978108;28;20212;-74
2021/06/28 10:18:53;;;;;;;2.47;2.28;;;;;;;24.80;47.49;95571.50;4978452;28;20301;-78
2021/06/28 10:21:18;;;;;;;2.20;2.10;;;;;;;24.86;46.53;95575.88;4969817;28;20565;-77
2021/06/28 10:23:44;;;;;;;2.45;2.25;;;;;;;25.50;44.99;95568.53;4962089;28;20275;-76
2021/06/28 10:26:09;;;;;;;2.53;2.20;;;;;;;25.24;46.37;95571.81;4958812;28;20224;-77
2021/06/28 10:28:36;;;;;;;3.72;2.30;;;;;;;25.16;46.75;95575.66;4958872;28;20180;-76
2021/06/28 10:31:07;;;;;;;2.38;2.28;;;;;;;25.11;45.57;95573.72;4962961;28;20215;-77
2021/06/28 10:33:33;;;;;;;2.70;2.50;;;;;;;25.47;45.72;95570.88;4945253;28;20173;-77
2021/06/28 10:36:04;;;;;;;4.20;2.60;;;;;;;25.43;46.50;95576.66;4976165;28;20215;-76
2021/06/28 10:39:02;;;;;;;2.22;2.03;;;;;;;25.23;45.85;95568.34;4995405;28;20202;-76
2021/06/28 10:41:42;;;;;;;2.60;2.40;;;;;;;26.00;44.12;95565.13;4915536;29;20203;-76
2021/06/28 10:44:13;;;;;;;2.40;2.17;;;;;;;25.51;45.74;95566.69;4910640;29;20189;-77
2021/06/28 10:46:39;;;;;;;2.17;2.08;;;;;;;25.80;44.30;95559.50;4919475;29;20213;-77
2021/06/28 10:49:06;;;;;;;2.75;2.55;;;;;;;24.95;46.73;95565.66;4935243;29;20578;-76
2021/06/28 10:51:49;;;;;;;2.50;2.30;;;;;;;25.84;45.26;95564.06;4921293;29;20250;-76
2021/06/28 10:54:16;;;;;;;2.97;2.58;;;;;;;25.88;45.31;95556.41;4911656;29;20667;-76
2021/06/28 10:56:44;;;;;;;2.75;2.35;;;;;;;25.65;44.23;95555.50;4894258;29;20278;-76
2021/06/28 10:59:32;;;;;;;1.92;1.83;;;;;;;25.72;46.07;95560.72;4884240;29;20194;-76
2021/06/28 11:02:00;;;;;;;2.50;2.30;;;;;;;25.25;45.84;95554.81;4915499;29;20182;-76
2021/06/28 11:04:33;;;;;;;2.53;2.33;;;;;;;24.94;46.74;95564.06;4921679;29;20274;-75
2021/06/28 11:06:58;;;;;;;2.50;2.28;;;;;;;24.85;46.88;95555.66;4916725;29;20405;-76
2021/06/28 11:09:43;;;;;;;3.05;2.25;;;;;;;25.75;45.96;95554.09;4921690;29;20223;-76
2021/06/28 11:12:17;;;;;;;2.55;2.40;;;;;;;26.27;44.80;95554.59;4914751;29;20338;-76
2021/06/28 11:14:51;;;;;;;2.00;1.90;;;;;;;26.70;43.08;95551.19;4921403;29;20181;-76
2021/06/28 11:17:21;;;;;;;2.85;2.13;;;;;;;26.66;43.02;95555.38;4944370;28;20354;-76
2021/06/28 11:19:53;;;;;;;2.58;2.10;;;;;;;26.44;43.96;95551.91;4973597;28;20259;-76
2021/06/28 11:22:30;;;;;;;4.10;2.08;;;;;;;26.31;44.07;95546.91;4962373;28;20195;-77
2021/06/28 11:25:00;;;;;;;2.08;1.90;;;;;;;26.43;43.48;95543.13;4977827;28;20187;-76
2021/06/28 11:27:26;;;;;;;3.03;2.38;;;;;;;26.05;44.52;95535.09;4947545;28;20192;-77
2021/06/28 11:29:54;;;;;;;2.80;2.60;;;;;;;26.25;44.40;95532.75;4957627;28;20176;-76
2021/06/28 11:32:27;;;;;;;4.13;2.50;;;;;;;26.57;42.98;95529.44;4957726;28;20323;-77
2021/06/28 11:34:53;;;;;;;3.95;2.30;;;;;;;27.07;42.24;95522.03;4962471;28;20198;-77
2021/06/28 11:37:18;;;;;;;3.35;2.78;;;;;;;27.43;43.38;95526.88;4952344;28;20778;-77